Aviation Digital Data Service (ADDS)

Output produced by METARs form (0940 UTC 27 May 2015)
found at http://www.aviationweather.gov/adds/metars/
 
KDEN 270903Z 2709/2812 23010KT P6SM BKN100 
     FM271400 VRB05KT P6SM SCT070 BKN140 
     FM272200 14008KT P6SM VCTS SCT070CB BKN120 
     FM280300 20010KT P6SM SCT080 BKN150 
     FM280800 21008KT P6SM FEW100 SCT200